sensor_id;sensor_type;location;lat;lon;timestamp;P1;durP1;ratioP1;P2;durP2;ratioP2
12774;SDS011;6451;42.630;23.382;2023-02-10T00:01:29;13.50;;;8.03;;
12774;SDS011;6451;42.630;23.382;2023-02-10T00:03:56;11.70;;;6.80;;
12774;SDS011;6451;42.630;23.382;2023-02-10T00:06:26;12.90;;;7.90;;
12774;SDS011;6451;42.630;23.382;2023-02-10T00:08:54;13.07;;;7.83;;
12774;SDS011;6451;42.630;23.382;2023-02-10T00:11:22;11.67;;;7.70;;
12774;SDS011;6451;42.630;23.382;2023-02-10T00:14:10;10.60;;;6.90;;
12774;SDS011;6451;42.630;23.382;2023-02-10T00:16:42;13.07;;;8.17;;
12774;SDS011;6451;42.630;23.382;2023-02-10T00:19:08;12.93;;;7.97;;
12774;SDS011;6451;42.630;23.382;2023-02-10T00:21:37;17.80;;;8.83;;
12774;SDS011;6451;42.630;23.382;2023-02-10T00:24:04;15.37;;;9.63;;
12774;SDS011;6451;42.630;23.382;2023-02-10T00:26:31;16.40;;;9.37;;
12774;SDS011;6451;42.630;23.382;2023-02-10T00:28:58;17.23;;;8.90;;
12774;SDS011;6451;42.630;23.382;2023-02-10T00:31:25;15.87;;;8.97;;
12774;SDS011;6451;42.630;23.382;2023-02-10T00:33:52;14.93;;;8.57;;
12774;SDS011;6451;42.630;23.382;2023-02-10T00:36:19;13.30;;;7.83;;
12774;SDS011;6451;42.630;23.382;2023-02-10T00:38:48;12.97;;;7.93;;
12774;SDS011;6451;42.630;23.382;2023-02-10T00:41:16;11.97;;;7.73;;
12774;SDS011;6451;42.630;23.382;2023-02-10T00:43:44;13.23;;;8.27;;
12774;SDS011;6451;42.630;23.382;2023-02-10T00:46:13;13.47;;;7.70;;
12774;SDS011;6451;42.630;23.382;2023-02-10T00:48:42;16.67;;;8.47;;
12774;SDS011;6451;42.630;23.382;2023-02-10T00:51:12;14.87;;;8.03;;
12774;SDS011;6451;42.630;23.382;2023-02-10T00:53:45;14.17;;;8.50;;
12774;SDS011;6451;42.630;23.382;2023-02-10T00:56:16;13.03;;;7.73;;
12774;SDS011;6451;42.630;23.382;2023-02-10T00:58:44;15.00;;;7.90;;
12774;SDS011;6451;42.630;23.382;2023-02-10T01:01:11;12.73;;;7.70;;
12774;SDS011;6451;42.630;23.382;2023-02-10T01:03:39;14.63;;;7.87;;
12774;SDS011;6451;42.630;23.382;2023-02-10T01:06:07;13.13;;;7.83;;
12774;SDS011;6451;42.630;23.382;2023-02-10T01:08:35;14.23;;;8.40;;
12774;SDS011;6451;42.630;23.382;2023-02-10T01:11:03;12.17;;;7.90;;
12774;SDS011;6451;42.630;23.382;2023-02-10T01:13:33;15.77;;;8.30;;
12774;SDS011;6451;42.630;23.382;2023-02-10T01:16:03;11.93;;;7.10;;
12774;SDS011;6451;42.630;23.382;2023-02-10T01:18:30;12.80;;;7.03;;
12774;SDS011;6451;42.630;23.382;2023-02-10T01:20:57;12.37;;;7.30;;
12774;SDS011;6451;42.630;23.382;2023-02-10T01:23:24;15.17;;;8.20;;
12774;SDS011;6451;42.630;23.382;2023-02-10T01:25:51;14.77;;;8.27;;
12774;SDS011;6451;42.630;23.382;2023-02-10T01:28:19;14.60;;;7.90;;
12774;SDS011;6451;42.630;23.382;2023-02-10T01:30:47;14.73;;;8.27;;
12774;SDS011;6451;42.630;23.382;2023-02-10T01:33:15;14.80;;;8.40;;
12774;SDS011;6451;42.630;23.382;2023-02-10T01:35:42;15.30;;;7.90;;
12774;SDS011;6451;42.630;23.382;2023-02-10T01:38:09;13.47;;;7.73;;
12774;SDS011;6451;42.630;23.382;2023-02-10T01:40:35;12.17;;;7.53;;
12774;SDS011;6451;42.630;23.382;2023-02-10T01:43:02;13.40;;;7.73;;
12774;SDS011;6451;42.630;23.382;2023-02-10T01:45:36;13.07;;;7.83;;
12774;SDS011;6451;42.630;23.382;2023-02-10T01:48:06;17.77;;;8.07;;
12774;SDS011;6451;42.630;23.382;2023-02-10T01:50:35;11.60;;;7.17;;
12774;SDS011;6451;42.630;23.382;2023-02-10T01:53:05;13.47;;;7.87;;
12774;SDS011;6451;42.630;23.382;2023-02-10T01:55:33;13.07;;;7.50;;
12774;SDS011;6451;42.630;23.382;2023-02-10T01:58:03;12.23;;;7.03;;
12774;SDS011;6451;42.630;23.382;2023-02-10T02:00:32;11.37;;;7.37;;
12774;SDS011;6451;42.630;23.382;2023-02-10T02:03:00;13.50;;;8.07;;
12774;SDS011;6451;42.630;23.382;2023-02-10T02:05:31;14.87;;;7.73;;
12774;SDS011;6451;42.630;23.382;2023-02-10T02:08:01;13.33;;;7.87;;
12774;SDS011;6451;42.630;23.382;2023-02-10T02:10:52;12.40;;;7.50;;
12774;SDS011;6451;42.630;23.382;2023-02-10T02:13:35;15.43;;;7.33;;
12774;SDS011;6451;42.630;23.382;2023-02-10T02:16:18;12.43;;;7.50;;
12774;SDS011;6451;42.630;23.382;2023-02-10T02:18:54;14.97;;;7.90;;
12774;SDS011;6451;42.630;23.382;2023-02-10T02:21:39;13.47;;;7.93;;
12774;SDS011;6451;42.630;23.382;2023-02-10T02:24:41;12.70;;;7.40;;
12774;SDS011;6451;42.630;23.382;2023-02-10T02:27:38;14.90;;;7.80;;
12774;SDS011;6451;42.630;23.382;2023-02-10T02:30:27;14.40;;;7.70;;
12774;SDS011;6451;42.630;23.382;2023-02-10T02:33:10;13.47;;;7.53;;
12774;SDS011;6451;42.630;23.382;2023-02-10T02:35:41;15.57;;;7.53;;
12774;SDS011;6451;42.630;23.382;2023-02-10T02:38:11;13.43;;;7.73;;
12774;SDS011;6451;42.630;23.382;2023-02-10T02:40:38;13.70;;;7.80;;
12774;SDS011;6451;42.630;23.382;2023-02-10T02:43:05;16.40;;;8.13;;
12774;SDS011;6451;42.630;23.382;2023-02-10T02:45:34;14.03;;;8.03;;
12774;SDS011;6451;42.630;23.382;2023-02-10T02:48:16;14.53;;;7.60;;
12774;SDS011;6451;42.630;23.382;2023-02-10T02:51:03;13.17;;;8.23;;
12774;SDS011;6451;42.630;23.382;2023-02-10T02:53:34;18.50;;;8.57;;
12774;SDS011;6451;42.630;23.382;2023-02-10T02:58:45;19.33;;;7.87;;
12774;SDS011;6451;42.630;23.382;2023-02-10T03:01:18;13.73;;;8.90;;
12774;SDS011;6451;42.630;23.382;2023-02-10T03:03:52;14.67;;;8.40;;
12774;SDS011;6451;42.630;23.382;2023-02-10T03:06:25;12.70;;;7.50;;
12774;SDS011;6451;42.630;23.382;2023-02-10T03:08:52;14.67;;;7.67;;
12774;SDS011;6451;42.630;23.382;2023-02-10T03:11:21;15.20;;;7.93;;
12774;SDS011;6451;42.630;23.382;2023-02-10T03:13:48;15.50;;;7.73;;
12774;SDS011;6451;42.630;23.382;2023-02-10T03:16:17;14.30;;;8.10;;
12774;SDS011;6451;42.630;23.382;2023-02-10T03:18:46;14.20;;;8.43;;
12774;SDS011;6451;42.630;23.382;2023-02-10T03:21:16;13.17;;;7.87;;
12774;SDS011;6451;42.630;23.382;2023-02-10T03:23:43;14.80;;;8.37;;
12774;SDS011;6451;42.630;23.382;2023-02-10T03:26:12;14.50;;;8.10;;
12774;SDS011;6451;42.630;23.382;2023-02-10T03:28:39;17.17;;;9.40;;
12774;SDS011;6451;42.630;23.382;2023-02-10T03:31:06;22.13;;;10.60;;
12774;SDS011;6451;42.630;23.382;2023-02-10T03:33:35;20.50;;;11.03;;
12774;SDS011;6451;42.630;23.382;2023-02-10T03:36:08;22.83;;;11.60;;
12774;SDS011;6451;42.630;23.382;2023-02-10T03:38:37;26.27;;;13.10;;
12774;SDS011;6451;42.630;23.382;2023-02-10T03:41:04;25.13;;;13.87;;
12774;SDS011;6451;42.630;23.382;2023-02-10T03:43:31;27.97;;;13.80;;
12774;SDS011;6451;42.630;23.382;2023-02-10T03:46:00;35.57;;;16.93;;
12774;SDS011;6451;42.630;23.382;2023-02-10T03:48:27;35.40;;;18.20;;
12774;SDS011;6451;42.630;23.382;2023-02-10T03:50:56;35.03;;;16.80;;
12774;SDS011;6451;42.630;23.382;2023-02-10T03:53:23;32.83;;;17.50;;
12774;SDS011;6451;42.630;23.382;2023-02-10T03:55:52;35.90;;;18.13;;
12774;SDS011;6451;42.630;23.382;2023-02-10T03:58:20;36.60;;;18.57;;
12774;SDS011;6451;42.630;23.382;2023-02-10T04:00:49;30.83;;;17.57;;
12774;SDS011;6451;42.630;23.382;2023-02-10T04:05:46;28.30;;;15.70;;
12774;SDS011;6451;42.630;23.382;2023-02-10T04:08:13;33.30;;;16.47;;
12774;SDS011;6451;42.630;23.382;2023-02-10T04:10:40;29.10;;;16.07;;
12774;SDS011;6451;42.630;23.382;2023-02-10T04:13:09;29.17;;;15.27;;
12774;SDS011;6451;42.630;23.382;2023-02-10T04:15:35;25.93;;;15.93;;
12774;SDS011;6451;42.630;23.382;2023-02-10T04:18:02;26.37;;;15.17;;
12774;SDS011;6451;42.630;23.382;2023-02-10T04:20:30;34.47;;;16.00;;
12774;SDS011;6451;42.630;23.382;2023-02-10T04:22:57;26.37;;;14.50;;
12774;SDS011;6451;42.630;23.382;2023-02-10T04:25:25;29.73;;;16.00;;
12774;SDS011;6451;42.630;23.382;2023-02-10T04:27:52;29.60;;;14.93;;
12774;SDS011;6451;42.630;23.382;2023-02-10T04:30:22;25.23;;;14.37;;
12774;SDS011;6451;42.630;23.382;2023-02-10T04:32:50;28.10;;;15.77;;
12774;SDS011;6451;42.630;23.382;2023-02-10T04:35:17;29.33;;;14.23;;
12774;SDS011;6451;42.630;23.382;2023-02-10T04:37:44;23.80;;;14.50;;
12774;SDS011;6451;42.630;23.382;2023-02-10T04:40:11;25.07;;;12.37;;
12774;SDS011;6451;42.630;23.382;2023-02-10T04:42:37;23.57;;;11.37;;
12774;SDS011;6451;42.630;23.382;2023-02-10T04:45:05;20.57;;;10.63;;
12774;SDS011;6451;42.630;23.382;2023-02-10T04:47:35;15.73;;;9.73;;
12774;SDS011;6451;42.630;23.382;2023-02-10T04:50:02;20.27;;;9.77;;
12774;SDS011;6451;42.630;23.382;2023-02-10T04:52:29;16.33;;;8.90;;
12774;SDS011;6451;42.630;23.382;2023-02-10T04:54:56;17.77;;;10.10;;
12774;SDS011;6451;42.630;23.382;2023-02-10T04:57:23;19.57;;;9.83;;
12774;SDS011;6451;42.630;23.382;2023-02-10T04:59:51;19.10;;;9.57;;
12774;SDS011;6451;42.630;23.382;2023-02-10T05:02:19;18.03;;;9.63;;
12774;SDS011;6451;42.630;23.382;2023-02-10T05:04:47;14.00;;;8.77;;
12774;SDS011;6451;42.630;23.382;2023-02-10T05:07:15;16.87;;;9.50;;
12774;SDS011;6451;42.630;23.382;2023-02-10T05:09:42;18.87;;;9.47;;
12774;SDS011;6451;42.630;23.382;2023-02-10T05:12:09;16.93;;;9.40;;
12774;SDS011;6451;42.630;23.382;2023-02-10T05:14:37;18.77;;;9.53;;
12774;SDS011;6451;42.630;23.382;2023-02-10T05:17:04;15.67;;;8.77;;
12774;SDS011;6451;42.630;23.382;2023-02-10T05:19:32;16.07;;;9.40;;
12774;SDS011;6451;42.630;23.382;2023-02-10T05:22:01;15.77;;;9.80;;
12774;SDS011;6451;42.630;23.382;2023-02-10T05:24:28;14.80;;;8.70;;
12774;SDS011;6451;42.630;23.382;2023-02-10T05:26:55;16.47;;;8.57;;
12774;SDS011;6451;42.630;23.382;2023-02-10T05:29:22;14.93;;;9.00;;
12774;SDS011;6451;42.630;23.382;2023-02-10T05:31:49;16.57;;;9.63;;
12774;SDS011;6451;42.630;23.382;2023-02-10T05:34:16;20.07;;;9.53;;
12774;SDS011;6451;42.630;23.382;2023-02-10T05:36:43;15.50;;;10.03;;
12774;SDS011;6451;42.630;23.382;2023-02-10T05:39:12;19.27;;;9.40;;
12774;SDS011;6451;42.630;23.382;2023-02-10T05:41:51;16.67;;;9.67;;
12774;SDS011;6451;42.630;23.382;2023-02-10T05:44:19;21.80;;;10.03;;
12774;SDS011;6451;42.630;23.382;2023-02-10T05:46:48;17.43;;;9.40;;
12774;SDS011;6451;42.630;23.382;2023-02-10T05:49:16;14.73;;;8.10;;
12774;SDS011;6451;42.630;23.382;2023-02-10T05:51:43;12.83;;;7.87;;
12774;SDS011;6451;42.630;23.382;2023-02-10T05:54:12;20.40;;;10.33;;
12774;SDS011;6451;42.630;23.382;2023-02-10T05:56:39;16.97;;;8.93;;
12774;SDS011;6451;42.630;23.382;2023-02-10T05:59:06;15.97;;;9.57;;
12774;SDS011;6451;42.630;23.382;2023-02-10T06:01:34;15.37;;;9.83;;
12774;SDS011;6451;42.630;23.382;2023-02-10T06:04:01;20.03;;;9.10;;
12774;SDS011;6451;42.630;23.382;2023-02-10T06:06:28;19.57;;;9.03;;
12774;SDS011;6451;42.630;23.382;2023-02-10T06:08:56;15.70;;;9.40;;
12774;SDS011;6451;42.630;23.382;2023-02-10T06:11:25;16.93;;;9.73;;
12774;SDS011;6451;42.630;23.382;2023-02-10T06:13:52;18.17;;;10.17;;
12774;SDS011;6451;42.630;23.382;2023-02-10T06:16:19;17.10;;;7.97;;
12774;SDS011;6451;42.630;23.382;2023-02-10T06:18:46;15.73;;;8.13;;
12774;SDS011;6451;42.630;23.382;2023-02-10T06:21:13;16.03;;;9.07;;
12774;SDS011;6451;42.630;23.382;2023-02-10T06:23:41;18.90;;;10.30;;
12774;SDS011;6451;42.630;23.382;2023-02-10T06:26:09;19.33;;;10.20;;
12774;SDS011;6451;42.630;23.382;2023-02-10T06:28:38;21.17;;;11.30;;
12774;SDS011;6451;42.630;23.382;2023-02-10T06:31:05;20.43;;;10.67;;
12774;SDS011;6451;42.630;23.382;2023-02-10T06:33:33;24.67;;;10.30;;
12774;SDS011;6451;42.630;23.382;2023-02-10T06:36:00;19.17;;;10.60;;
12774;SDS011;6451;42.630;23.382;2023-02-10T06:38:30;17.30;;;9.73;;
12774;SDS011;6451;42.630;23.382;2023-02-10T06:40:57;15.43;;;10.07;;
12774;SDS011;6451;42.630;23.382;2023-02-10T06:43:24;17.77;;;10.30;;
12774;SDS011;6451;42.630;23.382;2023-02-10T06:45:53;20.10;;;9.73;;
12774;SDS011;6451;42.630;23.382;2023-02-10T06:48:20;16.50;;;10.07;;
12774;SDS011;6451;42.630;23.382;2023-02-10T06:50:48;18.33;;;10.40;;
12774;SDS011;6451;42.630;23.382;2023-02-10T06:53:16;22.43;;;11.27;;
12774;SDS011;6451;42.630;23.382;2023-02-10T06:55:43;19.53;;;11.27;;
12774;SDS011;6451;42.630;23.382;2023-02-10T06:58:10;19.40;;;11.03;;
12774;SDS011;6451;42.630;23.382;2023-02-10T07:00:37;17.03;;;9.93;;
12774;SDS011;6451;42.630;23.382;2023-02-10T07:03:07;19.43;;;10.73;;
12774;SDS011;6451;42.630;23.382;2023-02-10T07:05:34;18.00;;;10.10;;
12774;SDS011;6451;42.630;23.382;2023-02-10T07:08:02;18.07;;;11.30;;
12774;SDS011;6451;42.630;23.382;2023-02-10T07:10:29;20.37;;;11.83;;
12774;SDS011;6451;42.630;23.382;2023-02-10T07:12:56;18.67;;;11.37;;
12774;SDS011;6451;42.630;23.382;2023-02-10T07:15:23;20.27;;;12.90;;
12774;SDS011;6451;42.630;23.382;2023-02-10T07:17:50;22.23;;;12.50;;
12774;SDS011;6451;42.630;23.382;2023-02-10T07:20:19;19.60;;;12.03;;
12774;SDS011;6451;42.630;23.382;2023-02-10T07:22:47;22.70;;;12.27;;
12774;SDS011;6451;42.630;23.382;2023-02-10T07:25:14;19.87;;;11.03;;
12774;SDS011;6451;42.630;23.382;2023-02-10T07:27:41;22.37;;;10.67;;
12774;SDS011;6451;42.630;23.382;2023-02-10T07:30:09;19.70;;;11.70;;
12774;SDS011;6451;42.630;23.382;2023-02-10T07:32:36;17.67;;;10.10;;
12774;SDS011;6451;42.630;23.382;2023-02-10T07:35:03;18.10;;;10.60;;
12774;SDS011;6451;42.630;23.382;2023-02-10T07:37:32;20.33;;;10.37;;
12774;SDS011;6451;42.630;23.382;2023-02-10T07:39:59;20.07;;;11.47;;
12774;SDS011;6451;42.630;23.382;2023-02-10T07:42:26;17.30;;;11.63;;
12774;SDS011;6451;42.630;23.382;2023-02-10T07:44:53;20.63;;;11.00;;
12774;SDS011;6451;42.630;23.382;2023-02-10T07:47:19;19.83;;;11.33;;
12774;SDS011;6451;42.630;23.382;2023-02-10T07:49:46;16.20;;;11.00;;
12774;SDS011;6451;42.630;23.382;2023-02-10T07:52:13;20.70;;;11.33;;
12774;SDS011;6451;42.630;23.382;2023-02-10T07:54:42;18.87;;;11.13;;
12774;SDS011;6451;42.630;23.382;2023-02-10T07:57:08;18.97;;;11.00;;
12774;SDS011;6451;42.630;23.382;2023-02-10T07:59:35;19.37;;;11.40;;
12774;SDS011;6451;42.630;23.382;2023-02-10T08:02:03;21.40;;;12.20;;
12774;SDS011;6451;42.630;23.382;2023-02-10T08:04:30;18.20;;;11.30;;
12774;SDS011;6451;42.630;23.382;2023-02-10T08:06:57;20.73;;;12.67;;
12774;SDS011;6451;42.630;23.382;2023-02-10T08:09:25;20.27;;;13.03;;
12774;SDS011;6451;42.630;23.382;2023-02-10T08:11:57;23.83;;;14.07;;
12774;SDS011;6451;42.630;23.382;2023-02-10T08:14:25;22.30;;;13.97;;
12774;SDS011;6451;42.630;23.382;2023-02-10T08:16:52;21.40;;;13.33;;
12774;SDS011;6451;42.630;23.382;2023-02-10T08:19:19;21.37;;;13.60;;
12774;SDS011;6451;42.630;23.382;2023-02-10T08:21:46;24.57;;;13.53;;
12774;SDS011;6451;42.630;23.382;2023-02-10T08:24:13;25.00;;;14.40;;
12774;SDS011;6451;42.630;23.382;2023-02-10T08:26:40;25.10;;;13.93;;
12774;SDS011;6451;42.630;23.382;2023-02-10T08:29:10;27.57;;;14.80;;
12774;SDS011;6451;42.630;23.382;2023-02-10T08:31:37;24.57;;;14.63;;
12774;SDS011;6451;42.630;23.382;2023-02-10T08:34:04;24.77;;;13.27;;
12774;SDS011;6451;42.630;23.382;2023-02-10T08:36:31;23.20;;;13.33;;
12774;SDS011;6451;42.630;23.382;2023-02-10T08:38:58;19.33;;;12.37;;
12774;SDS011;6451;42.630;23.382;2023-02-10T08:41:25;21.10;;;13.40;;
12774;SDS011;6451;42.630;23.382;2023-02-10T08:43:56;19.83;;;12.60;;
12774;SDS011;6451;42.630;23.382;2023-02-10T08:46:25;21.20;;;12.63;;
12774;SDS011;6451;42.630;23.382;2023-02-10T08:48:52;21.07;;;12.73;;
12774;SDS011;6451;42.630;23.382;2023-02-10T08:51:18;20.50;;;11.53;;
12774;SDS011;6451;42.630;23.382;2023-02-10T08:53:46;23.03;;;12.83;;
12774;SDS011;6451;42.630;23.382;2023-02-10T08:56:13;22.60;;;13.37;;
12774;SDS011;6451;42.630;23.382;2023-02-10T08:58:43;22.70;;;12.90;;
12774;SDS011;6451;42.630;23.382;2023-02-10T09:01:11;23.53;;;13.07;;
12774;SDS011;6451;42.630;23.382;2023-02-10T09:03:40;19.57;;;12.53;;
12774;SDS011;6451;42.630;23.382;2023-02-10T09:06:12;22.80;;;13.33;;
12774;SDS011;6451;42.630;23.382;2023-02-10T09:08:40;22.40;;;12.80;;
12774;SDS011;6451;42.630;23.382;2023-02-10T09:11:08;18.93;;;12.37;;
12774;SDS011;6451;42.630;23.382;2023-02-10T09:13:36;21.93;;;12.43;;
12774;SDS011;6451;42.630;23.382;2023-02-10T09:16:04;20.63;;;12.87;;
12774;SDS011;6451;42.630;23.382;2023-02-10T09:18:31;24.03;;;12.33;;
12774;SDS011;6451;42.630;23.382;2023-02-10T09:21:00;19.13;;;12.43;;
12774;SDS011;6451;42.630;23.382;2023-02-10T09:23:27;23.13;;;13.00;;
12774;SDS011;6451;42.630;23.382;2023-02-10T09:25:54;22.37;;;12.77;;
12774;SDS011;6451;42.630;23.382;2023-02-10T09:28:23;17.90;;;12.00;;
12774;SDS011;6451;42.630;23.382;2023-02-10T09:30:51;21.20;;;13.17;;
12774;SDS011;6451;42.630;23.382;2023-02-10T09:33:18;21.27;;;12.73;;
12774;SDS011;6451;42.630;23.382;2023-02-10T09:35:45;19.13;;;11.73;;
12774;SDS011;6451;42.630;23.382;2023-02-10T09:38:13;21.33;;;12.43;;
12774;SDS011;6451;42.630;23.382;2023-02-10T09:40:45;23.03;;;12.73;;
12774;SDS011;6451;42.630;23.382;2023-02-10T09:43:18;18.73;;;11.60;;
12774;SDS011;6451;42.630;23.382;2023-02-10T09:45:56;19.17;;;11.33;;
12774;SDS011;6451;42.630;23.382;2023-02-10T09:48:31;17.60;;;10.93;;
12774;SDS011;6451;42.630;23.382;2023-02-10T09:51:09;18.53;;;10.67;;
12774;SDS011;6451;42.630;23.382;2023-02-10T09:53:43;19.23;;;10.70;;
12774;SDS011;6451;42.630;23.382;2023-02-10T09:56:12;20.70;;;11.17;;
12774;SDS011;6451;42.630;23.382;2023-02-10T09:58:48;19.07;;;11.90;;
12774;SDS011;6451;42.630;23.382;2023-02-10T10:01:19;18.53;;;11.20;;
12774;SDS011;6451;42.630;23.382;2023-02-10T10:03:52;19.43;;;11.87;;
12774;SDS011;6451;42.630;23.382;2023-02-10T10:06:23;21.90;;;13.20;;
12774;SDS011;6451;42.630;23.382;2023-02-10T10:08:59;21.83;;;12.50;;
12774;SDS011;6451;42.630;23.382;2023-02-10T10:11:32;19.57;;;11.63;;
12774;SDS011;6451;42.630;23.382;2023-02-10T10:14:04;20.90;;;13.30;;
12774;SDS011;6451;42.630;23.382;2023-02-10T10:16:40;20.07;;;12.87;;
12774;SDS011;6451;42.630;23.382;2023-02-10T10:19:27;20.30;;;12.97;;
12774;SDS011;6451;42.630;23.382;2023-02-10T10:22:05;24.67;;;13.93;;
12774;SDS011;6451;42.630;23.382;2023-02-10T10:24:50;24.37;;;14.17;;
12774;SDS011;6451;42.630;23.382;2023-02-10T10:27:36;23.90;;;13.77;;
12774;SDS011;6451;42.630;23.382;2023-02-10T10:30:14;25.07;;;14.07;;
12774;SDS011;6451;42.630;23.382;2023-02-10T10:32:45;29.50;;;14.90;;
12774;SDS011;6451;42.630;23.382;2023-02-10T10:35:14;24.50;;;13.87;;
12774;SDS011;6451;42.630;23.382;2023-02-10T10:37:43;28.03;;;15.30;;
12774;SDS011;6451;42.630;23.382;2023-02-10T10:40:15;25.03;;;14.87;;
12774;SDS011;6451;42.630;23.382;2023-02-10T10:42:46;26.33;;;15.13;;
12774;SDS011;6451;42.630;23.382;2023-02-10T10:45:16;22.83;;;14.90;;
12774;SDS011;6451;42.630;23.382;2023-02-10T10:47:47;26.77;;;15.53;;
12774;SDS011;6451;42.630;23.382;2023-02-10T10:50:19;23.90;;;15.03;;
12774;SDS011;6451;42.630;23.382;2023-02-10T10:52:49;25.57;;;14.30;;
12774;SDS011;6451;42.630;23.382;2023-02-10T10:55:21;22.47;;;13.87;;
12774;SDS011;6451;42.630;23.382;2023-02-10T10:57:51;22.97;;;14.20;;
12774;SDS011;6451;42.630;23.382;2023-02-10T11:00:22;23.80;;;14.77;;
12774;SDS011;6451;42.630;23.382;2023-02-10T11:02:52;24.83;;;14.73;;
12774;SDS011;6451;42.630;23.382;2023-02-10T11:05:20;25.93;;;14.63;;
12774;SDS011;6451;42.630;23.382;2023-02-10T11:07:49;24.67;;;14.43;;
12774;SDS011;6451;42.630;23.382;2023-02-10T11:10:23;23.10;;;14.03;;
12774;SDS011;6451;42.630;23.382;2023-02-10T11:12:53;26.17;;;13.63;;
12774;SDS011;6451;42.630;23.382;2023-02-10T11:18:05;19.60;;;12.27;;
12774;SDS011;6451;42.630;23.382;2023-02-10T11:20:40;18.30;;;12.40;;
12774;SDS011;6451;42.630;23.382;2023-02-10T11:23:12;21.93;;;13.57;;
12774;SDS011;6451;42.630;23.382;2023-02-10T11:25:45;24.13;;;13.40;;
12774;SDS011;6451;42.630;23.382;2023-02-10T11:28:17;21.40;;;14.00;;
12774;SDS011;6451;42.630;23.382;2023-02-10T11:30:46;21.43;;;14.30;;
12774;SDS011;6451;42.630;23.382;2023-02-10T11:33:21;21.73;;;13.80;;
12774;SDS011;6451;42.630;23.382;2023-02-10T11:35:51;21.97;;;14.87;;
12774;SDS011;6451;42.630;23.382;2023-02-10T11:38:23;24.57;;;15.10;;
12774;SDS011;6451;42.630;23.382;2023-02-10T11:40:54;25.00;;;15.30;;
12774;SDS011;6451;42.630;23.382;2023-02-10T11:43:28;23.30;;;14.13;;
12774;SDS011;6451;42.630;23.382;2023-02-10T11:45:58;22.03;;;14.20;;
12774;SDS011;6451;42.630;23.382;2023-02-10T11:48:26;25.97;;;15.03;;
12774;SDS011;6451;42.630;23.382;2023-02-10T11:51:01;31.17;;;15.80;;
12774;SDS011;6451;42.630;23.382;2023-02-10T11:53:31;23.10;;;15.07;;
12774;SDS011;6451;42.630;23.382;2023-02-10T11:56:03;25.93;;;14.47;;
12774;SDS011;6451;42.630;23.382;2023-02-10T11:58:42;24.63;;;15.17;;
12774;SDS011;6451;42.630;23.382;2023-02-10T12:01:48;24.27;;;15.20;;
12774;SDS011;6451;42.630;23.382;2023-02-10T12:07:20;25.83;;;15.57;;
12774;SDS011;6451;42.630;23.382;2023-02-10T12:09:57;24.83;;;15.10;;
12774;SDS011;6451;42.630;23.382;2023-02-10T12:12:36;25.27;;;15.10;;
12774;SDS011;6451;42.630;23.382;2023-02-10T12:17:47;24.73;;;14.43;;
12774;SDS011;6451;42.630;23.382;2023-02-10T12:20:25;23.97;;;14.83;;
12774;SDS011;6451;42.630;23.382;2023-02-10T12:23:11;25.80;;;15.37;;
12774;SDS011;6451;42.630;23.382;2023-02-10T12:25:59;23.27;;;15.00;;
12774;SDS011;6451;42.630;23.382;2023-02-10T12:28:37;21.33;;;13.43;;
12774;SDS011;6451;42.630;23.382;2023-02-10T12:31:18;21.43;;;14.63;;
12774;SDS011;6451;42.630;23.382;2023-02-10T12:33:56;24.73;;;14.83;;
12774;SDS011;6451;42.630;23.382;2023-02-10T12:36:37;24.00;;;14.70;;
12774;SDS011;6451;42.630;23.382;2023-02-10T12:39:13;24.17;;;14.90;;
12774;SDS011;6451;42.630;23.382;2023-02-10T12:41:48;23.70;;;15.53;;
12774;SDS011;6451;42.630;23.382;2023-02-10T12:44:33;22.17;;;14.50;;
12774;SDS011;6451;42.630;23.382;2023-02-10T12:47:15;27.43;;;14.67;;
12774;SDS011;6451;42.630;23.382;2023-02-10T12:49:58;25.53;;;15.03;;
12774;SDS011;6451;42.630;23.382;2023-02-10T12:52:47;21.60;;;14.57;;
12774;SDS011;6451;42.630;23.382;2023-02-10T12:55:19;20.50;;;13.83;;
12774;SDS011;6451;42.630;23.382;2023-02-10T12:57:50;23.47;;;14.57;;
12774;SDS011;6451;42.630;23.382;2023-02-10T13:00:25;23.13;;;14.40;;
12774;SDS011;6451;42.630;23.382;2023-02-10T13:02:56;21.20;;;14.57;;
12774;SDS011;6451;42.630;23.382;2023-02-10T13:05:28;26.17;;;14.67;;
12774;SDS011;6451;42.630;23.382;2023-02-10T13:07:59;26.40;;;16.30;;
12774;SDS011;6451;42.630;23.382;2023-02-10T13:10:29;27.60;;;15.10;;
12774;SDS011;6451;42.630;23.382;2023-02-10T13:13:00;29.73;;;14.60;;
12774;SDS011;6451;42.630;23.382;2023-02-10T13:15:33;29.03;;;15.73;;
12774;SDS011;6451;42.630;23.382;2023-02-10T13:18:11;23.80;;;14.83;;
12774;SDS011;6451;42.630;23.382;2023-02-10T13:20:46;24.03;;;15.90;;
12774;SDS011;6451;42.630;23.382;2023-02-10T13:23:20;22.87;;;15.00;;
12774;SDS011;6451;42.630;23.382;2023-02-10T13:25:58;21.97;;;15.03;;
12774;SDS011;6451;42.630;23.382;2023-02-10T13:28:40;23.07;;;15.80;;
12774;SDS011;6451;42.630;23.382;2023-02-10T13:31:25;23.83;;;15.97;;
12774;SDS011;6451;42.630;23.382;2023-02-10T13:34:02;29.13;;;15.87;;
12774;SDS011;6451;42.630;23.382;2023-02-10T13:36:32;26.87;;;16.70;;
12774;SDS011;6451;42.630;23.382;2023-02-10T13:39:03;24.63;;;16.20;;
12774;SDS011;6451;42.630;23.382;2023-02-10T13:41:39;22.93;;;15.70;;
12774;SDS011;6451;42.630;23.382;2023-02-10T13:44:22;25.80;;;15.73;;
12774;SDS011;6451;42.630;23.382;2023-02-10T13:49:53;23.97;;;15.63;;
12774;SDS011;6451;42.630;23.382;2023-02-10T13:52:26;23.53;;;15.13;;
12774;SDS011;6451;42.630;23.382;2023-02-10T13:54:56;20.03;;;14.13;;
12774;SDS011;6451;42.630;23.382;2023-02-10T13:57:29;22.47;;;14.90;;
12774;SDS011;6451;42.630;23.382;2023-02-10T14:00:05;28.63;;;15.83;;
12774;SDS011;6451;42.630;23.382;2023-02-10T14:02:40;21.33;;;15.17;;
12774;SDS011;6451;42.630;23.382;2023-02-10T14:05:20;24.97;;;15.80;;
12774;SDS011;6451;42.630;23.382;2023-02-10T14:07:49;25.93;;;14.53;;
12774;SDS011;6451;42.630;23.382;2023-02-10T14:10:26;27.20;;;14.60;;
12774;SDS011;6451;42.630;23.382;2023-02-10T14:12:56;20.90;;;14.27;;
12774;SDS011;6451;42.630;23.382;2023-02-10T14:15:25;22.23;;;15.17;;
12774;SDS011;6451;42.630;23.382;2023-02-10T14:17:59;24.27;;;14.70;;
12774;SDS011;6451;42.630;23.382;2023-02-10T14:20:29;25.17;;;15.83;;
12774;SDS011;6451;42.630;23.382;2023-02-10T14:23:01;32.63;;;16.50;;
12774;SDS011;6451;42.630;23.382;2023-02-10T14:25:32;25.93;;;16.07;;
12774;SDS011;6451;42.630;23.382;2023-02-10T14:28:03;28.77;;;15.60;;
12774;SDS011;6451;42.630;23.382;2023-02-10T14:30:34;29.63;;;16.10;;
12774;SDS011;6451;42.630;23.382;2023-02-10T14:33:12;29.20;;;16.17;;
12774;SDS011;6451;42.630;23.382;2023-02-10T14:35:49;31.13;;;16.90;;
12774;SDS011;6451;42.630;23.382;2023-02-10T14:38:19;29.47;;;16.80;;
12774;SDS011;6451;42.630;23.382;2023-02-10T14:40:48;27.97;;;16.50;;
12774;SDS011;6451;42.630;23.382;2023-02-10T14:43:17;30.67;;;18.00;;
12774;SDS011;6451;42.630;23.382;2023-02-10T14:45:47;30.73;;;17.20;;
12774;SDS011;6451;42.630;23.382;2023-02-10T14:48:16;32.10;;;18.13;;
12774;SDS011;6451;42.630;23.382;2023-02-10T14:53:32;29.73;;;18.13;;
12774;SDS011;6451;42.630;23.382;2023-02-10T14:56:02;27.97;;;17.37;;
12774;SDS011;6451;42.630;23.382;2023-02-10T14:58:30;29.07;;;17.87;;
12774;SDS011;6451;42.630;23.382;2023-02-10T15:01:02;32.57;;;19.60;;
12774;SDS011;6451;42.630;23.382;2023-02-10T15:03:40;36.50;;;21.53;;
12774;SDS011;6451;42.630;23.382;2023-02-10T15:06:08;34.23;;;20.23;;